Friday, January 18, 2019, 2:38 AM EST
Back to Local

KBVY, Beverly Municipal Airport

Location: Danvers, MA, United States Lat: 42.583
Local Time: 2:38 AM EST ( 7:38 GMT) Lon: -70.917
Time Zone: US/Eastern Elev: 108 ft

Show me the last for .
Show Decoded

2019-01-18 01:53 METAR KBVY 180653Z AUTO 00000KT 10SM OVC110 M04/M12 A3026 RMK AO2 SLP243
                 T10441122 =
2019-01-18 00:53 METAR KBVY 180553Z AUTO 22003KT 10SM CLR M04/M14 A3028 RMK AO2 SLP251 T10391139
                 11028 21061 58017 =
2019-01-17 23:53 METAR KBVY 180453Z AUTO 19004KT 10SM OVC100 M03/M13 A3031 RMK AO2 SLP260
                 T10281128 410171100 =
2019-01-17 22:53 METAR KBVY 180353Z AUTO 19003KT 10SM OVC100 M04/M13 A3032 RMK AO2 SLP267
                 T10391128 =
2019-01-17 21:53 METAR KBVY 180253Z AUTO 00000KT 10SM OVC110 M05/M13 A3033 RMK AO2 SLP269
                 T10501133 56003 =
2019-01-17 20:53 METAR KBVY 180153Z AUTO 00000KT 10SM CLR M06/M14 A3033 RMK AO2 SLP269 T10561139
                 =
2019-01-17 19:53 METAR KBVY 180053Z 08003KT 10SM CLR M05/M16 A3034 RMK AO2 SLP271 T10501156 =
2019-01-17 18:53 METAR KBVY 172353Z 07003KT 10SM CLR M06/M17 A3034 RMK AO2 SLP272 T10561167 11022
                 21061 50003 =
2019-01-17 17:53 METAR KBVY 172253Z 06003KT 10SM CLR M06/M20 A3034 RMK AO2 SLP273 T10561200 =
2019-01-17 16:53 METAR KBVY 172153Z 00000KT 10SM CLR M04/M22 A3034 RMK AO2 SLP271 T10391222 =
2019-01-17 15:53 METAR KBVY 172053Z 00000KT 10SM CLR M03/M22 A3033 RMK AO2 SLP269 T10331222 58007
                 =
2019-01-17 14:53 METAR KBVY 171953Z VRB03KT 10SM CLR M03/M23 A3034 RMK AO2 SLP273 T10281228 =
2019-01-17 13:53 METAR KBVY 171853Z VRB03KT 10SM CLR M03/M22 A3034 RMK AO2 SLP273 T10281217 =
2019-01-17 12:53 METAR KBVY 171753Z 31004KT 10SM CLR M04/M22 A3035 RMK AO2 SLP276 T10391222 11033
                 21100 58017 =
2019-01-17 11:53 METAR KBVY 171653Z VRB06KT 10SM CLR M04/M21 A3037 RMK AO2 SLP282 T10441211 =
2019-01-17 10:53 METAR KBVY 171553Z 32007KT 10SM CLR M06/M21 A3040 RMK AO2 SLP291 T10611211 =
2019-01-17 09:53 METAR KBVY 171453Z 31009KT 10SM CLR M07/M21 A3040 RMK AO2 SLP293 T10721206 51027
                 =
2019-01-17 08:53 METAR KBVY 171353Z 33015KT 10SM CLR M08/M21 A3038 RMK AO2 SLP285 T10831206 =
2019-01-17 07:53 METAR KBVY 171253Z 33011KT 10SM CLR M10/M21 A3035 RMK AO2 SLP275 T11001206 =
2019-01-17 06:53 METAR KBVY 171153Z 32012KT 10SM CLR M10/M20 A3032 RMK AO2 SLP267 T11001200 11028
                 21100 51016 =
2019-01-17 05:53 METAR KBVY 171053Z AUTO 32012KT 10SM CLR M09/M19 A3031 RMK AO2 SLP263 T10941189
                 =
2019-01-17 04:53 METAR KBVY 170953Z AUTO 33010KT 10SM CLR M09/M18 A3030 RMK AO2 SLP257 T10891183
                 =
2019-01-17 03:53 METAR KBVY 170853Z AUTO 33008KT 10SM CLR M07/M18 A3028 RMK AO2 SLP250 T10721178
                 51037 =
2019-01-17 02:53 METAR KBVY 170753Z AUTO 33012KT 10SM CLR M06/M16 A3025 RMK AO2 SLP240 T10611161
                 =

Support USWX by starting your Amazon purchase here.